Time;durP1;ratioP1;P1;durP2;ratioP2;P2;SDS_P1;SDS_P2;PMS_P1;PMS_P2;Temp;Humidity;BMP_temperature;BMP_pressure;BME280_temperature;BME280_humidity;BME280_pressure;Samples;Min_cycle;Max_cycle;Signal;HPM_P1;HPM_P2
2021/01/23 00:02:25;;;;;;;42.17;22.40;;;;;;;3.48;84.18;98721.66;1786318;80;26224;-59
2021/01/23 00:04:52;;;;;;;44.15;23.92;;;;;;;3.44;84.13;98724.15;1786323;80;25970;-58
2021/01/23 00:07:20;;;;;;;37.83;21.97;;;;;;;3.42;84.37;98727.64;1786311;80;25582;-58
2021/01/23 00:09:47;;;;;;;39.98;22.98;;;;;;;3.40;84.25;98729.83;1786005;80;25721;-57
2021/01/23 00:12:13;;;;;;;42.75;22.15;;;;;;;3.35;84.44;98725.41;1786344;80;25629;-59
2021/01/23 00:14:41;;;;;;;37.95;21.95;;;;;;;3.32;84.40;98723.84;1786339;80;26327;-59
2021/01/23 00:17:08;;;;;;;41.65;23.73;;;;;;;3.29;84.52;98721.23;1785928;80;25701;-58
2021/01/23 00:19:34;;;;;;;46.23;23.35;;;;;;;3.29;84.50;98723.91;1786331;80;25693;-57
2021/01/23 00:22:01;;;;;;;40.30;23.00;;;;;;;3.27;84.38;98726.62;1786298;80;25693;-58
2021/01/23 00:24:28;;;;;;;41.33;21.50;;;;;;;3.25;84.43;98721.59;1786092;80;25779;-58
2021/01/23 00:26:54;;;;;;;49.03;23.67;;;;;;;3.24;84.30;98728.58;1786252;80;26155;-58
2021/01/23 00:29:21;;;;;;;38.65;23.05;;;;;;;3.25;84.26;98734.15;1786263;80;25675;-52
2021/01/23 00:31:48;;;;;;;41.37;23.40;;;;;;;3.23;84.12;98740.34;1786350;80;25725;-49
2021/01/23 00:34:15;;;;;;;43.05;24.63;;;;;;;3.21;84.39;98739.86;1786287;80;25662;-61
2021/01/23 00:36:42;;;;;;;39.48;22.40;;;;;;;3.17;84.43;98736.99;1786370;80;25618;-50
2021/01/23 00:39:08;;;;;;;49.50;24.05;;;;;;;3.13;84.30;98747.48;1788324;80;26183;-61
2021/01/23 00:41:35;;;;;;;42.67;24.30;;;;;;;3.07;84.27;98754.00;1789410;80;26387;-59
2021/01/23 00:44:02;;;;;;;39.92;23.57;;;;;;;3.01;84.35;98753.84;1789456;80;25601;-56
2021/01/23 00:46:29;;;;;;;42.33;22.30;;;;;;;2.96;84.43;98758.75;1789344;80;25649;-58
2021/01/23 00:48:55;;;;;;;47.83;25.25;;;;;;;2.95;84.50;98756.38;1789461;80;25661;-61
2021/01/23 00:51:22;;;;;;;44.58;23.80;;;;;;;2.94;84.51;98758.78;1789429;80;26213;-63
2021/01/23 00:53:49;;;;;;;44.33;24.50;;;;;;;2.91;84.68;98761.52;1789346;80;25618;-59
2021/01/23 00:56:15;;;;;;;39.60;23.22;;;;;;;2.89;84.56;98755.66;1789285;79;25575;-57
2021/01/23 00:58:42;;;;;;;42.67;22.80;;;;;;;2.88;84.67;98755.95;1789500;80;25674;-46
2021/01/23 01:01:09;;;;;;;39.18;23.50;;;;;;;2.85;84.58;98760.57;1789584;80;25732;-56
2021/01/23 01:03:36;;;;;;;43.70;24.45;;;;;;;2.83;84.68;98760.86;1789460;79;25697;-57
2021/01/23 01:06:03;;;;;;;42.10;21.95;;;;;;;2.81;84.74;98753.70;1789431;80;25755;-57
2021/01/23 01:08:30;;;;;;;37.90;22.58;;;;;;;2.82;84.64;98752.59;1789407;80;25641;-58
2021/01/23 01:10:56;;;;;;;45.00;22.62;;;;;;;2.80;84.71;98746.77;1789352;80;25587;-54
2021/01/23 01:13:23;;;;;;;42.35;23.18;;;;;;;2.78;84.63;98747.60;1789486;80;25662;-58
2021/01/23 01:15:50;;;;;;;41.13;22.65;;;;;;;2.77;84.54;98742.00;1789378;80;25772;-46
2021/01/23 01:18:17;;;;;;;41.00;21.40;;;;;;;2.78;84.79;98748.94;1789293;80;25571;-52
2021/01/23 01:20:44;;;;;;;39.58;21.82;;;;;;;2.76;84.60;98752.45;1789421;79;25648;-55
2021/01/23 01:23:11;;;;;;;38.42;22.17;;;;;;;2.76;84.59;98751.12;1789431;80;25689;-56
2021/01/23 01:25:38;;;;;;;38.48;21.52;;;;;;;2.73;84.44;98750.36;1789391;80;25555;-58
2021/01/23 01:28:05;;;;;;;36.73;21.42;;;;;;;2.76;84.56;98747.89;1789398;80;25968;-57
2021/01/23 01:30:32;;;;;;;40.38;21.12;;;;;;;2.75;84.55;98750.86;1789405;80;25629;-52
2021/01/23 01:32:59;;;;;;;40.63;23.15;;;;;;;2.72;84.34;98752.22;1789468;80;25579;-55
2021/01/23 01:35:25;;;;;;;34.23;20.15;;;;;;;2.73;84.30;98751.70;1789354;80;25713;-56
2021/01/23 01:37:52;;;;;;;31.20;19.80;;;;;;;2.70;84.33;98752.28;1789470;79;25629;-55
2021/01/23 01:40:19;;;;;;;42.13;21.55;;;;;;;2.69;84.42;98752.02;1789338;80;26214;-54
2021/01/23 01:42:45;;;;;;;38.20;21.10;;;;;;;2.66;84.26;98758.75;1789196;80;25745;-57
2021/01/23 01:45:13;;;;;;;31.25;18.90;;;;;;;2.59;84.18;98765.81;1789488;80;25698;-56
2021/01/23 01:47:40;;;;;;;36.05;20.68;;;;;;;2.56;84.42;98768.27;1789419;80;25622;-56
2021/01/23 01:50:09;;;;;;;36.65;21.17;;;;;;;2.52;84.47;98772.08;1789466;80;25611;-49
2021/01/23 01:52:36;;;;;;;34.73;19.52;;;;;;;2.50;84.45;98775.55;1789454;80;25898;-57
2021/01/23 01:55:04;;;;;;;34.63;19.45;;;;;;;2.48;84.58;98780.95;1789408;79;25736;-54
2021/01/23 01:57:31;;;;;;;34.40;19.00;;;;;;;2.43;84.51;98787.97;1789415;80;25686;-51
2021/01/23 01:59:57;;;;;;;36.00;20.65;;;;;;;2.39;84.46;98786.95;1789588;80;25637;-57
2021/01/23 02:03:05;;;;;;;32.63;17.80;;;;;;;2.36;84.33;98780.85;1789629;80;25733;-55
2021/01/23 02:05:56;;;;;;;32.95;19.50;;;;;;;2.33;84.43;98789.44;1789383;80;26163;-45
2021/01/23 02:08:37;;;;;;;37.13;20.30;;;;;;;2.29;84.69;98792.44;1789645;80;25634;-51
2021/01/23 02:11:50;;;;;;;38.65;21.02;;;;;;;2.26;84.92;98798.36;1789674;80;25620;-57
2021/01/23 02:14:34;;;;;;;35.30;20.25;;;;;;;2.23;84.90;98790.41;1727304;82;25761;-58
2021/01/23 02:17:06;;;;;;;31.30;20.05;;;;;;;2.22;85.09;98791.48;1788761;80;25677;-58
2021/01/23 02:19:59;;;;;;;39.85;21.77;;;;;;;2.22;85.25;98792.81;1790098;80;27073;-55
2021/01/23 02:22:49;;;;;;;39.33;19.77;;;;;;;2.23;85.29;98789.59;1788992;80;25493;-56
2021/01/23 02:25:19;;;;;;;34.27;20.02;;;;;;;2.22;85.18;98791.48;1790304;80;25642;-58
2021/01/23 02:28:06;;;;;;;;;;;;;;;2.21;85.15;98791.24;1792759;79;25371;-53
2021/01/23 02:31:13;;;;;;;34.35;19.20;;;;;;;2.21;85.24;98793.09;1790411;80;25533;-53
2021/01/23 02:33:41;;;;;;;35.55;19.50;;;;;;;2.18;84.93;98810.49;1790187;80;25967;-52
2021/01/23 02:36:10;;;;;;;34.60;19.23;;;;;;;2.12;85.01;98800.97;1790088;80;25523;-55
2021/01/23 02:38:38;;;;;;;36.20;21.40;;;;;;;2.10;84.95;98796.47;1789741;80;25547;-55
2021/01/23 02:41:06;;;;;;;35.73;20.52;;;;;;;2.09;85.13;98792.20;1785411;80;25346;-54
2021/01/23 02:43:34;;;;;;;35.00;19.52;;;;;;;2.07;85.15;98798.92;1785315;80;25408;-57
2021/01/23 02:46:01;;;;;;;35.68;20.00;;;;;;;2.07;85.15;98805.59;1785531;80;26169;-49
2021/01/23 02:48:27;;;;;;;36.60;20.10;;;;;;;2.02;84.81;98799.23;1785507;80;25571;-55
2021/01/23 02:50:58;;;;;;;37.73;21.23;;;;;;;2.00;84.80;98807.28;1785468;80;25649;-53
2021/01/23 02:53:29;;;;;;;35.75;20.95;;;;;;;1.98;84.63;98810.23;1785466;80;25625;-56
2021/01/23 02:55:59;;;;;;;37.67;21.60;;;;;;;1.95;84.71;98804.69;1785562;80;25614;-58
2021/01/23 02:58:31;;;;;;;31.17;18.23;;;;;;;1.97;84.90;98811.85;1785409;80;25704;-57
2021/01/23 03:01:00;;;;;;;34.45;19.62;;;;;;;1.97;84.93;98819.85;1785508;80;25667;-57
2021/01/23 03:03:28;;;;;;;;;;;;;;;1.98;85.01;98822.78;1788176;80;25469;-48
2021/01/23 03:05:54;;;;;;;34.13;19.45;;;;;;;1.99;85.11;98815.02;1784481;80;25608;-44
2021/01/23 03:08:21;;;;;;;31.70;19.05;;;;;;;1.99;85.29;98819.83;1785346;80;25655;-57
2021/01/23 03:10:48;;;;;;;33.73;18.85;;;;;;;2.03;85.29;98826.72;1785128;80;27068;-44
2021/01/23 03:13:15;;;;;;;34.25;20.02;;;;;;;2.05;85.27;98829.88;1785064;80;25346;-58
2021/01/23 03:15:42;;;;;;;33.85;20.00;;;;;;;2.05;85.33;98819.21;1785138;80;25416;-58
2021/01/23 03:18:10;;;;;;;31.73;20.17;;;;;;;2.05;85.10;98821.33;1785302;80;25567;-56
2021/01/23 03:20:37;;;;;;;34.50;21.20;;;;;;;2.02;84.85;98823.78;1785129;80;25675;-55
2021/01/23 03:23:04;;;;;;;33.08;18.52;;;;;;;1.96;84.73;98815.06;1785212;80;27068;-58
2021/01/23 03:25:31;;;;;;;34.88;20.32;;;;;;;1.93;84.80;98820.19;1785114;80;25698;-41
2021/01/23 03:27:58;;;;;;;34.15;20.77;;;;;;;1.93;85.14;98816.97;1785085;80;25521;-53
2021/01/23 03:30:29;;;;;;;36.68;20.48;;;;;;;1.92;85.21;98810.04;1785162;80;25611;-56
2021/01/23 03:32:56;;;;;;;32.00;18.95;;;;;;;1.93;85.13;98806.85;1784619;80;25331;-58
2021/01/23 03:35:22;;;;;;;32.13;19.25;;;;;;;1.90;84.93;98799.42;1784835;80;25778;-47
2021/01/23 03:37:49;;;;;;;38.48;21.50;;;;;;;1.88;84.75;98802.92;1785152;80;25379;-55
2021/01/23 03:40:17;;;;;;;36.48;22.00;;;;;;;1.82;84.34;98808.33;1786136;80;25733;-57
2021/01/23 03:42:44;;;;;;;39.08;22.65;;;;;;;1.75;84.30;98808.41;1786819;80;25571;-60
2021/01/23 03:45:12;;;;;;;38.83;21.25;;;;;;;1.71;84.16;98814.86;1786874;80;25558;-58
2021/01/23 03:47:40;;;;;;;41.33;21.48;;;;;;;1.67;83.99;98821.30;1786731;80;25917;-56
2021/01/23 03:50:09;;;;;;;36.40;20.00;;;;;;;1.60;83.78;98824.86;1786850;80;25503;-56
2021/01/23 03:52:37;;;;;;;39.88;22.35;;;;;;;1.53;83.56;98824.39;1786995;80;32350;-57
2021/01/23 03:55:06;;;;;;;36.75;20.88;;;;;;;1.41;83.15;98834.12;1786472;80;25673;-59
2021/01/23 03:57:34;;;;;;;47.35;22.30;;;;;;;1.35;83.64;98822.49;1787034;80;25570;-45
2021/01/23 04:00:01;;;;;;;37.85;21.45;;;;;;;1.29;83.75;98822.55;1786919;80;26251;-52
2021/01/23 04:02:28;;;;;;;40.52;22.50;;;;;;;1.24;83.89;98813.80;1786793;80;25698;-56
2021/01/23 04:04:55;;;;;;;39.45;22.25;;;;;;;1.23;84.29;98809.57;1786871;80;25516;-58
2021/01/23 04:07:22;;;;;;;45.60;24.30;;;;;;;1.22;84.39;98809.30;1786742;80;25332;-58
2021/01/23 04:09:48;;;;;;;48.08;25.50;;;;;;;1.21;84.34;98805.04;1786835;80;25598;-58
2021/01/23 04:12:15;;;;;;;45.30;23.95;;;;;;;1.15;83.95;98796.31;1786731;80;26239;-58
2021/01/23 04:14:42;;;;;;;46.73;24.95;;;;;;;1.09;83.78;98798.25;1786784;80;25686;-57
2021/01/23 04:17:10;;;;;;;46.35;23.57;;;;;;;1.04;83.98;98789.50;1786628;80;25560;-57
2021/01/23 04:19:36;;;;;;;43.05;23.90;;;;;;;1.00;83.76;98785.83;1758234;80;25626;-51
2021/01/23 04:22:03;;;;;;;44.98;23.62;;;;;;;0.95;83.94;98782.67;1786608;80;25730;-58
2021/01/23 04:24:30;;;;;;;47.48;23.60;;;;;;;0.96;84.17;98771.51;1786830;80;26346;-57
2021/01/23 04:26:57;;;;;;;40.92;22.10;;;;;;;0.93;83.89;98762.98;1786724;80;25549;-54
2021/01/23 04:29:23;;;;;;;44.15;22.58;;;;;;;0.89;83.81;98763.30;1786762;80;25472;-59
2021/01/23 04:31:50;;;;;;;43.85;24.07;;;;;;;0.87;83.97;98760.14;1786727;80;25489;-47
2021/01/23 04:34:17;;;;;;;38.30;21.97;;;;;;;0.86;83.87;98774.52;1786724;80;25583;-44
2021/01/23 04:36:44;;;;;;;43.70;23.75;;;;;;;0.85;84.02;98776.94;1786909;80;26427;-59
2021/01/23 04:39:11;;;;;;;46.30;23.90;;;;;;;0.85;84.31;98777.45;1786334;80;25554;-48
2021/01/23 04:41:37;;;;;;;48.85;24.30;;;;;;;0.84;84.23;98767.35;1786913;80;25515;-51
2021/01/23 04:44:06;;;;;;;45.17;24.02;;;;;;;0.84;84.16;98754.04;1786875;80;25782;-59
2021/01/23 04:46:33;;;;;;;49.93;24.45;;;;;;;0.86;84.43;98751.09;1786864;80;25601;-59
2021/01/23 04:49:03;;;;;;;46.65;25.00;;;;;;;0.85;84.31;98750.83;1786834;80;25695;-59
2021/01/23 04:51:30;;;;;;;43.52;24.92;;;;;;;0.87;84.74;98746.02;1787080;80;25322;-57
2021/01/23 04:53:57;;;;;;;42.75;25.00;;;;;;;0.89;84.92;98751.33;1787048;80;25448;-58
2021/01/23 04:56:27;;;;;;;47.45;25.02;;;;;;;0.93;85.27;98740.35;1786968;80;25446;-58
2021/01/23 04:58:54;;;;;;;43.60;23.55;;;;;;;0.95;85.38;98740.62;1787360;80;25599;-59
2021/01/23 05:01:21;;;;;;;44.80;23.67;;;;;;;0.96;85.35;98736.89;1787071;80;25704;-58
2021/01/23 05:04:02;;;;;;;44.70;23.83;;;;;;;0.95;85.53;98722.77;1786993;80;25413;-44
2021/01/23 05:06:31;;;;;;;48.15;24.87;;;;;;;1.00;85.90;98731.24;1787061;80;25226;-51
2021/01/23 05:08:58;;;;;;;;;;;;;;;1.05;85.93;98737.30;1789809;80;25555;-45
2021/01/23 05:11:49;;;;;;;41.15;23.22;;;;;;;1.11;86.11;98727.40;1787152;80;25342;-57
2021/01/23 05:14:17;;;;;;;42.95;23.35;;;;;;;1.17;85.96;98732.12;1787085;80;26658;-56
2021/01/23 05:16:44;;;;;;;43.55;23.60;;;;;;;1.22;86.18;98715.52;1787048;80;25702;-56
2021/01/23 05:19:11;;;;;;;47.40;24.60;;;;;;;1.29;86.15;98707.19;1787003;80;25451;-56
2021/01/23 05:21:39;;;;;;;44.67;24.70;;;;;;;1.36;86.20;98708.17;1786949;80;25534;-56
2021/01/23 05:24:13;;;;;;;40.88;24.18;;;;;;;1.40;86.18;98711.86;1787253;80;25499;-49
2021/01/23 05:26:40;;;;;;;42.23;23.27;;;;;;;1.42;86.07;98707.03;1787035;80;25700;-58
2021/01/23 05:29:14;;;;;;;42.08;23.02;;;;;;;1.44;85.87;98712.31;1786983;80;25510;-47
2021/01/23 05:31:42;;;;;;;45.17;24.10;;;;;;;1.45;85.66;98705.92;1787118;80;25497;-55
2021/01/23 05:34:31;;;;;;;40.33;22.15;;;;;;;1.42;85.44;98708.37;1786950;80;25362;-58
2021/01/23 05:36:59;;;;;;;39.55;23.18;;;;;;;1.39;85.34;98693.73;1787218;80;25578;-53
2021/01/23 05:39:48;;;;;;;43.95;24.60;;;;;;;1.40;85.47;98695.88;1786899;80;25783;-58
2021/01/23 05:42:17;;;;;;;43.10;23.38;;;;;;;1.39;85.56;98693.73;1786817;80;25585;-57
2021/01/23 05:45:09;;;;;;;45.23;23.90;;;;;;;1.39;85.52;98703.06;1787337;80;25592;-58
2021/01/23 05:47:37;;;;;;;41.35;22.82;;;;;;;1.36;85.56;98710.28;1786713;80;25456;-54
2021/01/23 05:50:07;;;;;;;43.02;22.42;;;;;;;1.35;85.56;98707.94;1786885;80;25685;-49
2021/01/23 05:52:34;;;;;;;43.00;24.05;;;;;;;1.35;85.58;98706.60;1787019;80;25776;-60
2021/01/23 05:55:03;;;;;;;41.65;23.22;;;;;;;1.37;86.01;98699.89;1786921;80;25338;-58
2021/01/23 05:57:30;;;;;;;46.10;24.77;;;;;;;1.38;86.01;98712.15;1786912;80;25674;-52
2021/01/23 05:59:56;;;;;;;43.33;24.47;;;;;;;1.44;86.10;98730.19;1787132;80;25543;-55
2021/01/23 06:02:24;;;;;;;42.70;24.07;;;;;;;1.44;86.14;98720.86;1787078;80;25571;-53
2021/01/23 06:04:52;;;;;;;47.23;25.40;;;;;;;1.46;86.23;98722.17;1787046;80;25711;-57
2021/01/23 06:07:42;;;;;;;48.98;26.97;;;;;;;1.52;86.41;98714.11;1786983;80;25539;-57
2021/01/23 06:10:26;;;;;;;48.80;26.27;;;;;;;1.60;86.68;98717.44;1782197;80;25416;-52
2021/01/23 06:12:55;;;;;;;41.63;24.40;;;;;;;1.66;87.15;98703.75;1768477;80;25582;-59
2021/01/23 06:15:41;;;;;;;48.70;28.05;;;;;;;1.74;87.10;98709.51;1787027;80;25551;-58
2021/01/23 06:18:24;;;;;;;45.00;25.45;;;;;;;1.81;87.22;98715.30;1787013;80;26782;-47
2021/01/23 06:20:59;;;;;;;45.52;25.55;;;;;;;1.89;87.44;98713.83;1786624;80;25845;-59
2021/01/23 06:23:49;;;;;;;48.25;25.75;;;;;;;1.95;87.33;98710.80;1786864;80;25469;-56
2021/01/23 06:26:18;;;;;;;45.83;24.05;;;;;;;2.00;87.37;98722.72;1787070;80;25543;-57
2021/01/23 06:28:48;;;;;;;41.10;24.27;;;;;;;2.04;87.47;98722.41;1787097;80;25610;-41
2021/01/23 06:31:31;;;;;;;42.00;26.27;;;;;;;2.12;87.62;98718.82;1787113;80;25839;-57
2021/01/23 06:33:58;;;;;;;42.43;25.65;;;;;;;2.19;87.88;98721.35;1786919;80;25563;-57
2021/01/23 06:36:25;;;;;;;39.85;23.80;;;;;;;2.27;88.09;98719.91;1786982;80;25470;-56
2021/01/23 06:39:10;;;;;;;44.05;24.52;;;;;;;2.36;88.00;98712.02;1786941;80;25573;-58
2021/01/23 06:41:38;;;;;;;40.70;23.15;;;;;;;2.41;88.09;98714.61;1789553;80;25539;-59
2021/01/23 06:44:18;;;;;;;39.67;24.27;;;;;;;2.46;87.95;98711.84;1790113;80;26743;-47
2021/01/23 06:46:56;;;;;;;44.60;24.35;;;;;;;2.51;87.91;98709.09;1790321;80;25548;-58
2021/01/23 06:49:24;;;;;;;45.80;24.45;;;;;;;2.57;87.89;98708.45;1790139;80;25456;-59
2021/01/23 06:52:04;;;;;;;36.55;22.25;;;;;;;2.61;87.96;98709.45;1790313;79;25530;-59
2021/01/23 06:54:31;;;;;;;;;;;;;;;2.65;87.92;98711.77;1792884;80;25595;-42
2021/01/23 06:56:58;;;;;;;45.25;25.32;;;;;;;2.71;88.07;98707.16;1790235;80;26475;-52
2021/01/23 06:59:34;;;;;;;40.63;22.42;;;;;;;2.74;88.14;98700.67;1789879;80;25564;-56
2021/01/23 07:02:10;;;;;;;42.78;25.05;;;;;;;2.80;88.05;98695.47;1790395;80;25574;-57
2021/01/23 07:04:50;;;;;;;37.73;23.77;;;;;;;2.85;88.00;98698.59;1789597;80;25551;-59
2021/01/23 07:07:18;;;;;;;40.30;22.98;;;;;;;2.88;87.99;98697.20;1790532;79;25565;-43
2021/01/23 07:09:54;;;;;;;41.68;23.57;;;;;;;2.93;88.09;98695.23;1790254;80;27090;-59
2021/01/23 07:12:42;;;;;;;43.95;24.12;;;;;;;2.96;88.16;98683.97;1789435;80;25579;-60
2021/01/23 07:15:15;;;;;;;46.88;24.95;;;;;;;3.01;87.99;98680.38;1790330;79;25566;-57
2021/01/23 07:17:44;;;;;;;45.25;24.37;;;;;;;3.05;88.17;98673.89;1763839;80;25540;-59
2021/01/23 07:20:15;;;;;;;47.40;26.45;;;;;;;3.07;88.01;98677.86;1790272;80;25385;-57
2021/01/23 07:22:42;;;;;;;40.40;24.30;;;;;;;3.10;88.16;98681.28;1790251;80;25848;-56
2021/01/23 07:25:13;;;;;;;38.85;21.30;;;;;;;3.14;88.22;98675.58;1790212;80;25572;-57
2021/01/23 07:27:42;;;;;;;38.80;23.55;;;;;;;3.18;88.33;98676.58;1790108;80;25421;-56
2021/01/23 07:30:17;;;;;;;37.60;23.62;;;;;;;3.22;88.54;98682.63;1790295;79;25649;-56
2021/01/23 07:32:47;;;;;;;40.05;22.70;;;;;;;3.25;88.69;98672.69;1790259;80;25598;-53
2021/01/23 07:35:16;;;;;;;40.67;23.87;;;;;;;3.29;88.70;98675.80;1790288;80;26797;-56
2021/01/23 07:37:58;;;;;;;36.98;23.52;;;;;;;3.34;88.79;98667.68;1790301;80;25503;-56
2021/01/23 07:40:29;;;;;;;43.23;23.35;;;;;;;3.41;88.96;98668.61;1789593;79;25563;-58
2021/01/23 07:43:02;;;;;;;46.23;24.72;;;;;;;3.47;89.04;98666.05;1787160;80;25547;-54
2021/01/23 07:45:30;;;;;;;41.85;25.23;;;;;;;3.51;88.75;98667.05;1787147;80;25409;-57
2021/01/23 07:48:06;;;;;;;40.95;25.25;;;;;;;3.53;88.64;98658.17;1787169;80;26147;-57
2021/01/23 07:50:40;;;;;;;44.95;27.35;;;;;;;3.57;88.60;98653.00;1787066;80;25642;-57
2021/01/23 07:53:22;;;;;;;47.33;27.73;;;;;;;3.64;88.74;98649.92;1787159;80;25522;-56
2021/01/23 07:55:51;;;;;;;49.93;29.40;;;;;;;3.69;88.94;98648.46;1787012;80;25559;-55
2021/01/23 07:58:19;;;;;;;46.20;26.47;;;;;;;3.76;88.98;98634.67;1787345;80;25543;-55
2021/01/23 08:00:46;;;;;;;41.15;25.17;;;;;;;3.80;89.16;98635.10;1787167;80;25988;-57
2021/01/23 08:03:14;;;;;;;48.02;26.65;;;;;;;3.84;89.19;98637.95;1786749;80;25539;-58
2021/01/23 08:05:57;;;;;;;51.18;26.57;;;;;;;3.88;89.16;98633.56;1787232;80;25456;-58
2021/01/23 08:08:35;;;;;;;44.15;25.43;;;;;;;3.91;89.15;98628.39;1787195;80;25624;-56
2021/01/23 08:11:04;;;;;;;44.95;27.05;;;;;;;3.96;89.12;98634.17;1787239;80;25538;-55
2021/01/23 08:13:34;;;;;;;44.13;25.97;;;;;;;4.01;89.01;98634.05;1787032;80;26946;-57
2021/01/23 08:16:14;;;;;;;43.42;25.88;;;;;;;4.04;89.22;98625.41;1787113;80;25354;-56
2021/01/23 08:18:45;;;;;;;41.05;25.08;;;;;;;4.07;89.17;98624.00;1787105;80;25318;-54
2021/01/23 08:21:21;;;;;;;40.20;24.82;;;;;;;4.10;89.10;98618.04;1787005;80;26060;-56
2021/01/23 08:23:49;;;;;;;41.18;24.43;;;;;;;4.16;89.12;98613.37;1787181;80;25592;-53
2021/01/23 08:26:18;;;;;;;42.78;23.92;;;;;;;4.21;89.19;98605.98;1787165;80;26654;-57
2021/01/23 08:28:47;;;;;;;37.73;24.05;;;;;;;4.24;89.19;98597.87;1786433;80;25745;-56
2021/01/23 08:31:25;;;;;;;36.17;23.73;;;;;;;4.27;89.19;98606.11;1787261;80;25390;-56
2021/01/23 08:33:55;;;;;;;38.67;23.22;;;;;;;4.34;89.28;98606.20;1786989;80;26384;-48
2021/01/23 08:36:28;;;;;;;38.33;24.20;;;;;;;4.37;89.26;98601.02;1786991;80;25627;-55
2021/01/23 08:39:05;;;;;;;41.00;24.67;;;;;;;4.43;89.16;98596.33;1786999;80;25704;-53
2021/01/23 08:41:35;;;;;;;35.70;24.05;;;;;;;4.49;89.17;98597.22;1786524;80;25614;-56
2021/01/23 08:44:03;;;;;;;43.00;25.55;;;;;;;4.54;89.17;98609.66;1786990;80;25525;-46
2021/01/23 08:46:30;;;;;;;41.95;25.48;;;;;;;4.58;89.23;98613.31;1786996;80;25358;-49
2021/01/23 08:48:57;;;;;;;41.20;25.32;;;;;;;4.58;89.01;98621.87;1787101;80;25584;-56
2021/01/23 08:51:24;;;;;;;37.28;23.47;;;;;;;4.59;89.08;98622.13;1786947;80;26246;-53
2021/01/23 08:53:51;;;;;;;39.67;25.48;;;;;;;4.59;88.92;98606.84;1786981;80;25397;-55
2021/01/23 08:56:18;;;;;;;41.80;25.45;;;;;;;4.60;88.97;98599.63;1786647;80;25619;-57
2021/01/23 08:58:45;;;;;;;41.33;23.77;;;;;;;4.60;89.00;98597.72;1787083;80;25492;-49
2021/01/23 09:01:13;;;;;;;34.88;23.27;;;;;;;4.61;89.03;98591.25;1787079;80;25457;-58
2021/01/23 09:03:40;;;;;;;36.35;23.75;;;;;;;4.64;89.08;98589.29;1786808;80;26154;-57
2021/01/23 09:06:07;;;;;;;38.55;23.67;;;;;;;4.66;88.99;98588.98;1787119;80;25519;-56
2021/01/23 09:08:34;;;;;;;41.25;25.48;;;;;;;4.69;88.99;98585.69;1787037;80;25548;-57
2021/01/23 09:11:02;;;;;;;35.05;22.90;;;;;;;4.71;88.99;98590.17;1786955;80;25606;-56
2021/01/23 09:13:28;;;;;;;39.88;25.10;;;;;;;4.73;89.14;98582.61;1787011;80;25570;-47
2021/01/23 09:15:55;;;;;;;37.08;24.20;;;;;;;4.76;89.03;98582.56;1787116;80;26348;-56
2021/01/23 09:18:23;;;;;;;38.05;24.82;;;;;;;4.78;88.98;98574.99;1787009;80;25401;-56
2021/01/23 09:20:50;;;;;;;38.78;24.25;;;;;;;4.80;89.08;98588.86;1787049;80;25580;-56
2021/01/23 09:23:16;;;;;;;35.60;23.60;;;;;;;4.83;89.03;98581.55;1787055;80;25582;-56
2021/01/23 09:25:43;;;;;;;42.65;24.65;;;;;;;4.87;89.00;98585.19;1786924;80;25532;-47
2021/01/23 09:28:10;;;;;;;38.78;24.90;;;;;;;4.92;89.13;98578.88;1787109;80;25845;-57
2021/01/23 09:30:38;;;;;;;42.38;25.12;;;;;;;4.95;89.03;98584.95;1786930;80;25583;-54
2021/01/23 09:33:05;;;;;;;38.78;23.75;;;;;;;4.99;88.99;98582.69;1787009;80;25544;-57
2021/01/23 09:35:32;;;;;;;40.25;25.45;;;;;;;5.02;88.89;98578.57;1786860;80;25369;-50
2021/01/23 09:37:58;;;;;;;41.60;25.97;;;;;;;5.04;88.87;98573.16;1786447;80;25614;-54
2021/01/23 09:40:25;;;;;;;38.78;25.23;;;;;;;5.08;88.86;98561.25;1786319;80;27126;-49
2021/01/23 09:42:52;;;;;;;41.77;24.35;;;;;;;5.12;88.76;98551.47;1786216;80;25673;-55
2021/01/23 09:45:19;;;;;;;40.58;23.73;;;;;;;5.17;88.72;98554.55;1786354;80;25567;-56
2021/01/23 09:47:46;;;;;;;42.27;24.85;;;;;;;5.19;88.67;98553.14;1786372;80;25579;-46
2021/01/23 09:50:13;;;;;;;36.63;22.67;;;;;;;5.22;88.73;98563.22;1779123;80;25650;-56
2021/01/23 09:52:40;;;;;;;38.75;24.37;;;;;;;5.27;88.57;98554.80;1760289;80;26728;-54
2021/01/23 09:55:08;;;;;;;37.38;23.73;;;;;;;5.32;88.63;98544.69;1760140;81;25586;-55
2021/01/23 09:57:35;;;;;;;37.95;23.67;;;;;;;5.38;88.64;98543.44;1760159;81;25645;-55
2021/01/23 10:00:05;;;;;;;39.35;22.98;;;;;;;5.43;88.47;98542.47;1760292;81;25613;-57
2021/01/23 10:02:34;;;;;;;;;;;;;;;5.50;88.50;98542.80;1763022;81;25599;-56
2021/01/23 10:05:03;;;;;;;41.05;23.32;;;;;;;5.57;88.34;98547.67;1760047;81;25785;-57
2021/01/23 10:07:30;;;;;;;37.10;23.50;;;;;;;5.60;88.19;98550.51;1760522;80;25691;-58
2021/01/23 10:09:57;;;;;;;35.00;23.83;;;;;;;5.64;88.12;98556.58;1760305;81;25602;-57
2021/01/23 10:12:23;;;;;;;36.68;23.05;;;;;;;5.68;88.09;98533.37;1760169;81;25591;-57
2021/01/23 10:14:50;;;;;;;38.85;23.98;;;;;;;5.71;87.99;98532.73;1760276;81;25771;-58
2021/01/23 10:17:17;;;;;;;43.05;23.45;;;;;;;5.74;87.81;98533.45;1760252;81;26242;-57
2021/01/23 10:19:44;;;;;;;40.85;23.55;;;;;;;5.75;87.64;98533.09;1760162;80;25686;-57
2021/01/23 10:22:11;;;;;;;33.85;21.15;;;;;;;5.75;87.63;98529.08;1760524;81;25912;-60
2021/01/23 10:24:38;;;;;;;37.15;21.40;;;;;;;5.78;87.55;98547.22;1760347;81;25603;-54
2021/01/23 10:27:05;;;;;;;33.55;22.25;;;;;;;5.82;87.51;98525.13;1760446;80;25714;-51
2021/01/23 10:29:32;;;;;;;34.55;21.25;;;;;;;5.85;87.52;98533.32;1760544;80;25974;-55
2021/01/23 10:31:59;;;;;;;34.15;21.70;;;;;;;5.87;87.37;98524.95;1760426;80;25667;-55
2021/01/23 10:34:26;;;;;;;31.93;20.95;;;;;;;5.89;87.11;98526.22;1760480;81;25829;-57
2021/01/23 10:36:53;;;;;;;31.52;21.10;;;;;;;5.90;87.09;98542.53;1760472;80;25713;-59
2021/01/23 10:39:20;;;;;;;29.92;19.75;;;;;;;5.93;87.08;98523.68;1760564;81;25611;-48
2021/01/23 10:41:47;;;;;;;31.27;19.15;;;;;;;5.96;86.95;98521.73;1760076;80;25707;-58
2021/01/23 10:44:14;;;;;;;33.20;19.75;;;;;;;5.98;86.92;98522.97;1760691;81;25628;-56
2021/01/23 10:46:41;;;;;;;30.52;19.17;;;;;;;6.00;86.84;98519.97;1760931;81;25778;-57
2021/01/23 10:49:07;;;;;;;29.23;18.23;;;;;;;6.03;86.65;98509.13;1760766;81;25713;-58
2021/01/23 10:51:34;;;;;;;27.80;17.90;;;;;;;6.06;86.58;98517.89;1760786;81;25761;-57
2021/01/23 10:54:01;;;;;;;32.78;17.90;;;;;;;6.07;86.47;98509.52;1760721;81;26686;-56
2021/01/23 10:56:28;;;;;;;24.63;16.05;;;;;;;6.10;86.37;98508.09;1761034;81;25656;-52
2021/01/23 10:59:01;;;;;;;26.35;17.40;;;;;;;6.12;86.11;98504.53;1761664;81;25602;-55
2021/01/23 11:01:23;;;;;;;27.75;17.35;;;;;;;6.15;86.19;98512.72;1761359;80;25616;-59
2021/01/23 11:03:50;;;;;;;28.80;16.05;;;;;;;6.19;85.98;98510.73;1761666;81;25625;-57
2021/01/23 11:06:17;;;;;;;23.90;15.65;;;;;;;6.22;86.23;98502.83;1761871;81;26300;-55
2021/01/23 11:08:44;;;;;;;25.32;15.83;;;;;;;6.24;85.95;98497.91;1761753;80;25661;-49
2021/01/23 11:11:11;;;;;;;23.38;14.90;;;;;;;6.26;85.69;98504.30;1761843;81;25674;-57
2021/01/23 11:13:37;;;;;;;25.68;16.12;;;;;;;6.27;85.72;98513.95;1761640;81;25654;-58
2021/01/23 11:16:05;;;;;;;25.00;14.65;;;;;;;6.27;85.64;98512.03;1761887;81;25681;-55
2021/01/23 11:18:32;;;;;;;23.12;14.00;;;;;;;6.28;85.50;98502.88;1767142;80;26699;-59
2021/01/23 11:20:59;;;;;;;23.65;14.53;;;;;;;6.30;85.53;98506.03;1792820;80;26210;-58
2021/01/23 11:23:26;;;;;;;22.27;13.15;;;;;;;6.32;85.33;98505.14;1793072;80;25668;-57
2021/01/23 11:25:53;;;;;;;18.02;12.30;;;;;;;6.34;85.41;98501.57;1793047;80;25812;-58
2021/01/23 11:28:20;;;;;;;18.92;12.85;;;;;;;6.35;85.29;98501.81;1793019;80;25884;-56
2021/01/23 11:30:48;;;;;;;19.57;12.63;;;;;;;6.38;85.09;98498.24;1793046;80;26286;-57
2021/01/23 11:33:15;;;;;;;19.98;12.82;;;;;;;6.41;85.28;98505.66;1792843;80;25871;-59
2021/01/23 11:35:43;;;;;;;21.62;12.30;;;;;;;6.43;85.08;98504.77;1792691;80;25724;-56
2021/01/23 11:38:09;;;;;;;15.60;11.70;;;;;;;6.45;85.13;98504.69;1792953;80;25614;-55
2021/01/23 11:40:36;;;;;;;19.17;11.78;;;;;;;6.45;85.03;98493.95;1793129;80;25725;-57